createdAt,value
2022-11-22T00:02:25.526Z,111.90
2022-11-22T00:04:53.347Z,119.30
2022-11-22T00:07:21.252Z,119.00
2022-11-22T00:09:49.040Z,111.00
2022-11-22T00:12:16.780Z,120.90
2022-11-22T00:14:44.625Z,112.30
2022-11-22T00:17:12.347Z,115.40
2022-11-22T00:19:40.237Z,118.70
2022-11-22T00:22:08.695Z,122.90
2022-11-22T00:24:36.421Z,122.70
2022-11-22T00:27:11.370Z,124.30
2022-11-22T00:29:39.075Z,124.30
2022-11-22T00:32:06.803Z,122.30
2022-11-22T00:34:35.201Z,116.00
2022-11-22T00:37:03.113Z,115.20
2022-11-22T00:39:31.277Z,120.00
2022-11-22T00:41:59.599Z,151.30
2022-11-22T00:44:27.170Z,163.90
2022-11-22T00:46:55.059Z,155.80
2022-11-22T00:49:22.839Z,165.70
2022-11-22T00:51:50.799Z,144.40
2022-11-22T00:54:18.452Z,182.80
2022-11-22T00:56:46.272Z,190.50
2022-11-22T00:59:14.053Z,238.80
2022-11-22T01:01:42.006Z,190.20
2022-11-22T01:04:09.821Z,179.30
2022-11-22T01:06:37.591Z,171.90
2022-11-22T01:09:05.506Z,190.80
2022-11-22T01:11:33.248Z,168.10
2022-11-22T01:14:00.997Z,136.20
2022-11-22T01:16:28.627Z,143.40
2022-11-22T01:18:56.437Z,147.90
2022-11-22T01:21:24.221Z,157.30
2022-11-22T01:23:51.923Z,173.10
2022-11-22T01:26:19.779Z,157.80
2022-11-22T01:28:54.093Z,158.00
2022-11-22T01:31:33.891Z,150.20
2022-11-22T01:34:05.554Z,128.10
2022-11-22T01:36:33.392Z,139.30
2022-11-22T01:39:01.051Z,139.40
2022-11-22T01:41:28.809Z,133.70
2022-11-22T01:43:56.518Z,147.50
2022-11-22T01:46:33.642Z,128.00
2022-11-22T01:49:06.392Z,144.20
2022-11-22T01:51:36.076Z,152.30
2022-11-22T01:54:06.174Z,159.40
2022-11-22T01:56:35.087Z,158.20
2022-11-22T01:59:05.278Z,155.60
2022-11-22T02:01:33.407Z,153.10
2022-11-22T02:04:02.826Z,140.60
2022-11-22T02:06:46.481Z,151.60
2022-11-22T02:09:14.702Z,146.80
2022-11-22T02:11:46.028Z,141.20
2022-11-22T02:14:14.995Z,146.50
2022-11-22T02:16:43.780Z,145.20
2022-11-22T02:19:18.421Z,163.90
2022-11-22T02:21:49.659Z,148.90
2022-11-22T02:24:20.725Z,150.00
2022-11-22T02:26:48.529Z,151.50
2022-11-22T02:29:23.033Z,149.40
2022-11-22T02:31:50.793Z,154.00
2022-11-22T02:34:18.499Z,162.60
2022-11-22T02:36:48.720Z,147.70
2022-11-22T02:39:19.343Z,147.70
2022-11-22T02:41:48.012Z,158.10
2022-11-22T02:44:16.498Z,155.70
2022-11-22T02:46:52.058Z,136.50
2022-11-22T02:49:26.701Z,164.50
2022-11-22T02:52:00.647Z,157.80
2022-11-22T02:54:32.287Z,157.90
2022-11-22T02:57:00.048Z,151.10
2022-11-22T02:59:28.171Z,155.80
2022-11-22T03:02:01.691Z,173.50
2022-11-22T03:04:30.992Z,174.10
2022-11-22T03:06:59.688Z,163.50
2022-11-22T03:09:28.212Z,161.10
2022-11-22T03:11:56.209Z,178.50
2022-11-22T03:14:24.053Z,158.90
2022-11-22T03:16:51.996Z,148.80
2022-11-22T03:19:26.022Z,157.60
2022-11-22T03:21:53.809Z,175.30
2022-11-22T03:24:21.510Z,164.30
2022-11-22T03:26:50.080Z,163.20
2022-11-22T03:29:18.134Z,162.70
2022-11-22T03:31:45.807Z,177.50
2022-11-22T03:34:14.239Z,172.90
2022-11-22T03:36:48.872Z,162.50
2022-11-22T03:39:16.559Z,162.20
2022-11-22T03:41:44.247Z,174.20
2022-11-22T03:44:12.001Z,153.90
2022-11-22T03:46:39.749Z,161.60
2022-11-22T03:49:07.493Z,148.40
2022-11-22T03:51:35.318Z,132.20
2022-11-22T03:54:03.252Z,152.30
2022-11-22T03:56:30.951Z,127.90
2022-11-22T03:58:58.783Z,120.80
2022-11-22T04:01:26.687Z,142.70
2022-11-22T04:03:54.462Z,123.20
2022-11-22T04:06:22.182Z,122.40
2022-11-22T04:08:50.200Z,105.40
2022-11-22T04:11:17.992Z,108.20
2022-11-22T04:14:04.747Z,113.40
2022-11-22T04:16:32.633Z,112.00
2022-11-22T04:19:00.305Z,120.70
2022-11-22T04:21:34.269Z,121.50
2022-11-22T04:26:49.253Z,114.70
2022-11-22T04:29:17.481Z,145.40
2022-11-22T04:32:04.399Z,136.00
2022-11-22T04:34:32.373Z,127.60
2022-11-22T04:37:00.565Z,126.40
2022-11-22T04:39:29.039Z,126.30
2022-11-22T04:42:16.067Z,142.90
2022-11-22T04:44:44.520Z,134.20
2022-11-22T04:47:34.138Z,104.80
2022-11-22T04:50:06.465Z,106.80
2022-11-22T04:52:52.834Z,112.50
2022-11-22T04:55:20.996Z,105.80
2022-11-22T04:57:48.908Z,111.30
2022-11-22T05:00:16.961Z,109.60
2022-11-22T05:02:44.754Z,107.30
2022-11-22T05:05:12.580Z,108.90
2022-11-22T05:07:40.666Z,102.10
2022-11-22T05:10:09.099Z,99.00
2022-11-22T05:12:36.758Z,111.30
2022-11-22T05:15:04.977Z,103.10
2022-11-22T05:17:32.794Z,113.00
2022-11-22T05:20:00.931Z,98.10
2022-11-22T05:22:47.406Z,96.50
2022-11-22T05:25:15.148Z,103.90
2022-11-22T05:27:53.589Z,96.20
2022-11-22T05:30:21.298Z,97.50
2022-11-22T05:32:49.014Z,94.40
2022-11-22T05:35:16.805Z,101.30
2022-11-22T05:37:44.723Z,101.30
2022-11-22T05:40:12.971Z,99.20
2022-11-22T05:42:40.637Z,96.60
2022-11-22T05:45:08.694Z,98.80
2022-11-22T05:47:36.562Z,96.80
2022-11-22T05:50:04.926Z,93.50
2022-11-22T05:52:32.779Z,96.20
2022-11-22T05:55:00.836Z,102.80
2022-11-22T05:57:28.748Z,102.20
2022-11-22T05:59:56.674Z,106.50
2022-11-22T06:02:24.583Z,106.50
2022-11-22T06:04:52.342Z,99.30
2022-11-22T06:07:20.165Z,99.70
2022-11-22T06:09:48.034Z,116.50
2022-11-22T06:12:15.832Z,104.80
2022-11-22T06:14:44.901Z,99.00
2022-11-22T06:17:12.690Z,98.90
2022-11-22T06:19:40.423Z,93.70
2022-11-22T06:22:09.965Z,106.90
2022-11-22T06:24:37.751Z,99.10
2022-11-22T06:27:12.239Z,98.10
2022-11-22T06:29:39.949Z,133.20
2022-11-22T06:32:07.756Z,134.80
2022-11-22T06:34:35.531Z,122.60
2022-11-22T06:37:03.337Z,129.80
2022-11-22T06:39:31.424Z,116.20
2022-11-22T06:42:04.789Z,114.70
2022-11-22T06:44:32.395Z,103.40
2022-11-22T06:47:00.357Z,156.20
2022-11-22T06:49:28.306Z,140.10
2022-11-22T06:51:56.297Z,109.30
2022-11-22T06:54:23.938Z,96.70
2022-11-22T06:56:51.638Z,91.90
2022-11-22T06:59:19.568Z,98.40
2022-11-22T07:01:47.399Z,109.00
2022-11-22T07:04:19.268Z,111.20
2022-11-22T07:06:47.180Z,117.90
2022-11-22T07:09:14.929Z,135.30
2022-11-22T07:11:42.683Z,153.00
2022-11-22T07:14:11.031Z,136.40
2022-11-22T07:16:38.990Z,140.60
2022-11-22T07:19:07.721Z,124.60
2022-11-22T07:21:37.483Z,109.90
2022-11-22T07:24:06.027Z,134.80
2022-11-22T07:26:33.719Z,145.10
2022-11-22T07:29:01.379Z,173.00
2022-11-22T07:31:29.263Z,172.40
2022-11-22T07:34:00.146Z,163.20
2022-11-22T07:36:29.721Z,132.60
2022-11-22T07:38:57.807Z,142.00
2022-11-22T07:41:25.760Z,104.30
2022-11-22T07:43:54.259Z,100.80
2022-11-22T07:46:29.343Z,98.10
2022-11-22T07:48:57.739Z,79.70
2022-11-22T07:51:25.894Z,83.30
2022-11-22T07:53:54.606Z,85.60
2022-11-22T07:56:22.410Z,82.50
2022-11-22T07:58:50.181Z,77.30
2022-11-22T08:01:18.538Z,71.20
2022-11-22T08:03:46.388Z,61.10
2022-11-22T08:06:15.135Z,75.60
2022-11-22T08:08:43.271Z,68.10
2022-11-22T08:11:11.403Z,64.10
2022-11-22T08:13:39.516Z,75.70
2022-11-22T08:16:08.802Z,63.70
2022-11-22T08:18:37.330Z,57.30
2022-11-22T08:21:05.173Z,67.60
2022-11-22T08:23:32.986Z,67.60
2022-11-22T08:26:00.839Z,64.60
2022-11-22T08:28:28.703Z,60.20
2022-11-22T08:31:16.542Z,61.10
2022-11-22T08:33:44.309Z,73.80
2022-11-22T08:36:12.410Z,69.40
2022-11-22T08:38:40.180Z,64.20
2022-11-22T08:41:08.875Z,84.40
2022-11-22T08:43:37.312Z,70.60
2022-11-22T08:46:05.796Z,70.20
2022-11-22T08:48:34.531Z,66.20
2022-11-22T08:51:09.696Z,64.10
2022-11-22T08:53:39.166Z,84.90
2022-11-22T08:56:09.737Z,116.70
2022-11-22T08:58:37.916Z,80.20
2022-11-22T09:01:07.003Z,78.80
2022-11-22T09:03:35.561Z,85.10
2022-11-22T09:09:15.030Z,68.00
2022-11-22T09:11:40.970Z,64.00
2022-11-22T09:14:08.892Z,64.70
2022-11-22T09:16:36.787Z,63.70
2022-11-22T09:19:05.229Z,76.20
2022-11-22T09:21:33.040Z,74.70
2022-11-22T09:24:00.973Z,73.50
2022-11-22T09:26:29.251Z,82.80
2022-11-22T09:28:57.169Z,82.30
2022-11-22T09:31:25.024Z,89.20
2022-11-22T09:33:52.806Z,95.70
2022-11-22T09:36:21.963Z,64.60
2022-11-22T09:38:51.125Z,73.00
2022-11-22T09:41:42.408Z,73.40
2022-11-22T09:44:18.941Z,56.60
2022-11-22T09:49:14.373Z,73.00
2022-11-22T09:51:47.955Z,67.10
2022-11-22T09:54:18.779Z,69.20
2022-11-22T09:56:48.392Z,73.20
2022-11-22T09:59:21.856Z,81.50
2022-11-22T10:01:55.910Z,75.90
2022-11-22T10:04:35.410Z,103.60
2022-11-22T10:07:08.042Z,84.00
2022-11-22T10:09:42.879Z,88.40
2022-11-22T10:12:13.934Z,86.80
2022-11-22T10:14:47.872Z,104.50
2022-11-22T10:17:24.934Z,90.40
2022-11-22T10:19:59.053Z,93.60
2022-11-22T10:22:29.499Z,90.40
2022-11-22T10:25:17.938Z,83.90
2022-11-22T10:28:00.960Z,92.10
2022-11-22T10:30:32.996Z,84.10
2022-11-22T10:33:03.883Z,83.40
2022-11-22T10:35:34.906Z,91.40
2022-11-22T10:38:14.646Z,84.80
2022-11-22T10:40:48.555Z,105.80
2022-11-22T10:43:33.183Z,93.10
2022-11-22T10:46:10.907Z,87.90
2022-11-22T10:48:53.158Z,89.80
2022-11-22T10:51:27.439Z,86.30
2022-11-22T10:54:00.366Z,86.20
2022-11-22T10:56:57.494Z,103.70
2022-11-22T10:59:32.123Z,95.80
2022-11-22T11:02:00.275Z,90.40
2022-11-22T11:04:31.222Z,101.10
2022-11-22T11:07:15.621Z,102.50
2022-11-22T11:12:42.178Z,102.30
2022-11-22T11:15:16.414Z,110.00
2022-11-22T11:17:46.461Z,128.20
2022-11-22T11:20:19.897Z,117.20
2022-11-22T11:25:49.578Z,131.80
2022-11-22T11:28:18.658Z,118.90
2022-11-22T11:30:52.237Z,117.70
2022-11-22T11:33:23.826Z,116.20
2022-11-22T11:36:11.859Z,132.30
2022-11-22T11:38:42.638Z,133.60
2022-11-22T11:41:29.191Z,134.00
2022-11-22T11:44:04.440Z,146.80
2022-11-22T11:46:41.671Z,140.70
2022-11-22T11:49:16.891Z,148.80
2022-11-22T11:51:54.405Z,137.50
2022-11-22T11:54:43.001Z,123.70
2022-11-22T11:57:11.509Z,144.80
2022-11-22T11:59:39.504Z,117.50
2022-11-22T12:02:16.678Z,114.50
2022-11-22T12:04:54.901Z,106.20
2022-11-22T12:07:24.596Z,112.10
2022-11-22T12:09:58.932Z,119.40
2022-11-22T12:12:36.980Z,130.70
2022-11-22T12:15:16.291Z,109.70
2022-11-22T12:17:54.330Z,109.80
2022-11-22T12:20:25.439Z,103.50
2022-11-22T12:23:02.478Z,102.80
2022-11-22T12:25:36.190Z,99.40
2022-11-22T12:28:12.958Z,114.70
2022-11-22T12:30:42.866Z,103.20
2022-11-22T12:33:17.786Z,92.20
2022-11-22T12:35:46.308Z,110.20
2022-11-22T12:38:16.803Z,107.00
2022-11-22T12:40:47.547Z,90.00
2022-11-22T12:43:21.720Z,93.70
2022-11-22T12:48:20.507Z,103.60
2022-11-22T12:50:56.607Z,105.80
2022-11-22T12:53:50.941Z,110.60
2022-11-22T12:56:21.936Z,102.70
2022-11-22T12:58:59.421Z,108.90
2022-11-22T13:01:36.420Z,103.30
2022-11-22T13:04:19.678Z,97.40
2022-11-22T13:07:02.461Z,112.80
2022-11-22T13:09:33.912Z,117.20
2022-11-22T13:12:22.640Z,119.20
2022-11-22T13:14:55.154Z,137.40
2022-11-22T13:17:24.874Z,97.80
2022-11-22T13:19:55.136Z,126.90
2022-11-22T13:22:42.166Z,155.70
2022-11-22T13:25:29.026Z,118.60
2022-11-22T13:28:09.388Z,105.80
2022-11-22T13:33:23.593Z,146.10
2022-11-22T13:36:16.891Z,161.20
2022-11-22T13:38:55.294Z,147.40
2022-11-22T13:41:34.914Z,115.50
2022-11-22T13:44:22.359Z,111.10
2022-11-22T13:46:50.309Z,116.20
2022-11-22T13:49:37.447Z,125.10
2022-11-22T13:52:13.036Z,132.90
2022-11-22T13:54:43.113Z,104.50
2022-11-22T13:57:26.298Z,100.30
2022-11-22T14:00:12.628Z,121.60
2022-11-22T14:02:46.962Z,118.00
2022-11-22T14:05:21.450Z,128.50
2022-11-22T14:07:50.261Z,112.60
2022-11-22T14:10:26.924Z,113.30
2022-11-22T14:13:13.800Z,114.90
2022-11-22T14:15:48.103Z,111.90
2022-11-22T14:18:34.989Z,109.80
2022-11-22T14:21:08.513Z,116.00
2022-11-22T14:23:57.185Z,112.10
2022-11-22T14:26:32.824Z,120.80
2022-11-22T14:29:01.457Z,104.00
2022-11-22T14:31:29.201Z,99.60
2022-11-22T14:34:16.983Z,107.50
2022-11-22T14:36:45.640Z,111.90
2022-11-22T14:39:33.770Z,147.10
2022-11-22T14:42:02.206Z,120.00
2022-11-22T14:44:36.814Z,113.20
2022-11-22T14:47:07.589Z,107.20
2022-11-22T14:49:47.920Z,143.70
2022-11-22T14:52:23.361Z,184.70
2022-11-22T14:54:57.480Z,119.50
2022-11-22T14:57:26.958Z,148.80
2022-11-22T15:00:10.717Z,128.60
2022-11-22T15:02:54.169Z,119.00
2022-11-22T15:09:13.087Z,138.30
2022-11-22T15:09:13.538Z,129.00
2022-11-22T15:11:18.544Z,159.60
2022-11-22T15:14:02.686Z,134.80
2022-11-22T15:59:45.264Z,119.10
2022-11-22T16:02:15.079Z,135.30
2022-11-22T16:04:47.953Z,158.10
2022-11-22T16:07:24.005Z,127.80
2022-11-22T16:09:51.969Z,125.70
2022-11-22T16:12:26.938Z,92.10
2022-11-22T16:14:55.022Z,111.90
2022-11-22T16:17:58.001Z,126.90
2022-11-22T16:20:31.879Z,99.70
2022-11-22T16:23:09.085Z,98.70
2022-11-22T16:25:38.206Z,96.70
2022-11-22T16:28:18.241Z,98.00
2022-11-22T16:30:46.470Z,101.90
2022-11-22T16:33:21.214Z,99.40
2022-11-22T16:35:57.370Z,106.70
2022-11-22T16:38:25.622Z,95.30
2022-11-22T16:40:54.206Z,103.60
2022-11-22T16:43:23.050Z,97.20
2022-11-22T16:45:51.392Z,94.80
2022-11-22T16:48:35.593Z,95.50
2022-11-22T16:53:41.511Z,111.30
2022-11-22T16:56:14.166Z,91.70
2022-11-22T16:58:41.977Z,117.80
2022-11-22T17:01:17.872Z,120.70
2022-11-22T17:03:54.864Z,126.10
2022-11-22T17:06:35.623Z,106.10
2022-11-22T17:09:12.989Z,128.60
2022-11-22T17:11:50.953Z,107.50
2022-11-22T17:14:24.638Z,94.10
2022-11-22T17:16:57.768Z,102.70
2022-11-22T17:22:29.309Z,144.50
2022-11-22T17:25:14.892Z,125.70
2022-11-22T17:27:54.999Z,102.20
2022-11-22T17:30:31.731Z,117.10
2022-11-22T17:33:04.866Z,98.80
2022-11-22T17:35:38.781Z,113.40
2022-11-22T17:38:14.151Z,106.60
2022-11-22T17:40:48.686Z,99.10
2022-11-22T17:43:21.693Z,146.00
2022-11-22T17:45:54.392Z,109.60
2022-11-22T17:48:30.814Z,138.50
2022-11-22T17:51:11.066Z,110.30
2022-11-22T17:53:44.374Z,101.20
2022-11-22T17:56:42.177Z,108.40
2022-11-22T17:59:19.260Z,129.40
2022-11-22T18:01:58.771Z,104.20
2022-11-22T18:04:33.257Z,117.40
2022-11-22T18:07:06.279Z,158.10
2022-11-22T18:09:34.928Z,109.90
2022-11-22T18:12:02.753Z,113.80
2022-11-22T18:14:30.916Z,114.00
2022-11-22T18:17:00.451Z,95.50
2022-11-22T18:19:28.424Z,105.00
2022-11-22T18:21:56.414Z,125.20
2022-11-22T18:24:24.167Z,142.60
2022-11-22T18:26:52.046Z,139.10
2022-11-22T18:29:41.808Z,143.70
2022-11-22T18:32:07.786Z,139.40
2022-11-22T18:34:35.888Z,130.50
2022-11-22T18:37:04.852Z,121.90
2022-11-22T18:39:35.195Z,117.60
2022-11-22T18:42:24.495Z,91.60
2022-11-22T18:44:52.233Z,113.00
2022-11-22T18:47:20.504Z,107.70
2022-11-22T18:49:48.315Z,120.10
2022-11-22T18:52:17.883Z,108.60
2022-11-22T18:55:08.963Z,106.10
2022-11-22T18:57:36.763Z,97.60
2022-11-22T19:00:05.493Z,112.50
2022-11-22T19:02:33.327Z,94.30
2022-11-22T19:05:02.067Z,101.00
2022-11-22T19:07:30.091Z,142.30
2022-11-22T19:09:58.931Z,184.70
2022-11-22T19:12:27.132Z,304.50
2022-11-22T19:14:54.849Z,241.70
2022-11-22T19:17:22.957Z,246.10
2022-11-22T19:20:00.177Z,140.20
2022-11-22T19:22:28.150Z,126.60
2022-11-22T19:24:55.952Z,123.20
2022-11-22T19:27:24.952Z,157.30
2022-11-22T19:29:52.921Z,129.10
2022-11-22T19:32:21.363Z,129.10
2022-11-22T19:34:56.193Z,124.10
2022-11-22T19:37:24.155Z,115.00
2022-11-22T19:39:52.998Z,137.80
2022-11-22T19:42:20.947Z,146.00
2022-11-22T19:44:49.984Z,141.30
2022-11-22T19:47:18.200Z,158.70
2022-11-22T19:49:46.049Z,137.00
2022-11-22T19:52:13.831Z,155.70
2022-11-22T19:54:44.156Z,184.00
2022-11-22T19:57:12.166Z,148.80
2022-11-22T19:59:40.091Z,131.90
2022-11-22T20:02:08.623Z,137.10
2022-11-22T20:04:36.442Z,159.40
2022-11-22T20:07:04.794Z,152.00
2022-11-22T20:09:32.956Z,213.00
2022-11-22T20:12:01.276Z,130.90
2022-11-22T20:14:29.304Z,115.20
2022-11-22T20:16:57.395Z,103.60
2022-11-22T20:19:34.384Z,77.20
2022-11-22T20:22:02.490Z,84.10
2022-11-22T20:24:31.049Z,81.20
2022-11-22T20:26:58.915Z,93.30
2022-11-22T20:29:26.835Z,94.30
2022-11-22T20:31:56.261Z,99.90
2022-11-22T20:34:24.523Z,100.10
2022-11-22T20:36:54.019Z,95.80
2022-11-22T20:39:21.866Z,95.00
2022-11-22T20:42:05.869Z,89.90
2022-11-22T20:44:37.433Z,113.00
2022-11-22T20:47:05.441Z,86.10
2022-11-22T20:49:33.768Z,79.90
2022-11-22T20:52:02.544Z,106.40
2022-11-22T20:54:30.664Z,87.50
2022-11-22T20:56:58.822Z,90.40
2022-11-22T20:59:26.679Z,102.40
2022-11-22T21:02:02.979Z,97.70
2022-11-22T21:04:33.284Z,80.50
2022-11-22T21:07:01.352Z,97.40
2022-11-22T21:09:29.257Z,83.70
2022-11-22T21:11:57.007Z,91.30
2022-11-22T21:14:25.248Z,78.50
2022-11-22T21:16:53.054Z,124.10
2022-11-22T21:19:20.954Z,109.50
2022-11-22T21:21:48.743Z,90.50
2022-11-22T21:24:16.517Z,83.20
2022-11-22T21:26:48.535Z,73.60
2022-11-22T21:29:16.886Z,73.10
2022-11-22T21:31:44.953Z,74.90
2022-11-22T21:34:12.888Z,75.10
2022-11-22T21:36:40.560Z,75.30
2022-11-22T21:39:08.272Z,89.60
2022-11-22T21:41:40.841Z,89.60
2022-11-22T21:44:09.664Z,77.30
2022-11-22T21:46:37.837Z,89.30
2022-11-22T21:49:05.989Z,71.50
2022-11-22T21:51:34.371Z,82.90
2022-11-22T21:54:02.928Z,76.50
2022-11-22T21:56:33.022Z,80.80
2022-11-22T21:59:01.309Z,86.40
2022-11-22T22:01:29.482Z,80.80
2022-11-22T22:03:57.310Z,75.10
2022-11-22T22:06:25.684Z,79.60
2022-11-22T22:08:54.099Z,75.80
2022-11-22T22:11:23.044Z,97.30
2022-11-22T22:13:54.190Z,85.60
2022-11-22T22:16:24.195Z,92.20
2022-11-22T22:18:57.163Z,91.20
2022-11-22T22:23:54.256Z,97.90
2022-11-22T22:26:22.399Z,99.00
2022-11-22T22:28:50.200Z,90.10
2022-11-22T22:31:28.440Z,95.60
2022-11-22T22:33:58.511Z,85.90
2022-11-22T22:36:28.939Z,98.80
2022-11-22T22:39:00.392Z,100.80
2022-11-22T22:41:28.527Z,81.20
2022-11-22T22:43:58.037Z,99.00
2022-11-22T22:46:26.069Z,90.80
2022-11-22T22:48:57.562Z,85.90
2022-11-22T22:51:33.431Z,88.00
2022-11-22T22:54:02.151Z,113.00
2022-11-22T22:56:31.176Z,90.50
2022-11-22T22:59:07.966Z,113.70
2022-11-22T23:01:39.583Z,108.60
2022-11-22T23:04:07.582Z,90.20
2022-11-22T23:06:36.635Z,110.00
2022-11-22T23:09:09.852Z,100.50
2022-11-22T23:11:58.537Z,91.20
2022-11-22T23:14:28.523Z,89.40
2022-11-22T23:16:58.134Z,88.40
2022-11-22T23:19:27.182Z,96.80
2022-11-22T23:21:55.264Z,98.10
2022-11-22T23:24:23.007Z,96.10
2022-11-22T23:26:50.876Z,102.80
2022-11-22T23:29:18.725Z,102.10
2022-11-22T23:31:46.482Z,95.50
2022-11-22T23:34:14.500Z,107.50
2022-11-22T23:36:42.230Z,98.60
2022-11-22T23:39:10.040Z,97.30
2022-11-22T23:41:37.956Z,95.90
2022-11-22T23:44:05.890Z,96.80
2022-11-22T23:46:33.794Z,81.40
2022-11-22T23:49:02.322Z,93.30
2022-11-22T23:51:31.170Z,92.90
2022-11-22T23:54:00.271Z,94.30
2022-11-22T23:56:28.705Z,82.20
2022-11-22T23:59:00.274Z,77.90
